Time;durP1;ratioP1;P1;durP2;ratioP2;P2;SDS_P1;SDS_P2;PMS_P1;PMS_P2;Temp;Humidity;BMP_temperature;BMP_pressure;BME280_temperature;BME280_humidity;BME280_pressure;Samples;Min_cycle;Max_cycle;Signal;HPM_P1;HPM_P2
2023/12/17 00:02:47;;;;;;;6.00;2.58;;;;;;;4.13;100.00;100519.34;15294939;19;20666;-54
2023/12/17 00:08:32;;;;;;;6.90;2.45;;;;;;;4.04;100.00;100520.59;15295078;19;20376;-54
2023/12/17 00:13:59;;;;;;;5.28;2.00;;;;;;;4.00;100.00;100524.31;15292651;19;20094;-55
2023/12/17 00:19:24;;;;;;;5.68;2.10;;;;;;;3.93;100.00;100517.53;15296653;19;20015;-57
2023/12/17 00:24:48;;;;;;;4.65;2.17;;;;;;;3.85;100.00;100512.53;15288708;19;20014;-57
2023/12/17 00:30:17;;;;;;;6.82;2.20;;;;;;;3.86;100.00;100522.25;15294669;19;20011;-58
2023/12/17 00:35:42;;;;;;;4.85;2.30;;;;;;;3.78;100.00;100511.06;15289146;19;20010;-56
2023/12/17 00:41:06;;;;;;;5.30;2.35;;;;;;;3.65;100.00;100500.94;15292345;19;20021;-59
2023/12/17 00:46:40;;;;;;;6.07;2.20;;;;;;;3.54;100.00;100496.06;15288704;19;20070;-55
2023/12/17 00:52:04;;;;;;;7.63;2.40;;;;;;;3.46;100.00;100482.19;15288970;19;20538;-55
2023/12/17 00:57:32;;;;;;;7.38;2.47;;;;;;;3.50;100.00;100482.94;15290372;19;20030;-55
2023/12/17 01:03:00;;;;;;;5.05;2.00;;;;;;;3.55;100.00;100494.28;15286841;19;20033;-56
2023/12/17 01:08:25;;;;;;;5.68;2.22;;;;;;;3.74;100.00;100506.78;15287727;19;20018;-56
2023/12/17 01:13:49;;;;;;;7.05;2.30;;;;;;;3.68;100.00;100506.16;15286812;19;20025;-58
2023/12/17 01:19:17;;;;;;;6.97;2.30;;;;;;;3.52;100.00;100486.41;15289833;19;20015;-58
2023/12/17 01:24:43;;;;;;;5.57;2.17;;;;;;;3.40;100.00;100506.44;15280761;19;20022;-59
2023/12/17 01:30:07;;;;;;;6.53;2.17;;;;;;;3.31;100.00;100525.47;15291042;19;20025;-57
2023/12/17 01:35:34;;;;;;;5.45;2.28;;;;;;;3.22;100.00;100508.06;15284478;19;20014;-57
2023/12/17 01:40:59;;;;;;;5.80;2.28;;;;;;;3.15;100.00;100506.56;15290825;19;20010;-57
2023/12/17 01:46:31;;;;;;;7.00;2.42;;;;;;;3.08;100.00;100512.16;15286227;19;20022;-57
2023/12/17 01:51:58;;;;;;;8.60;2.50;;;;;;;3.04;100.00;100497.22;15287515;19;20002;-59
2023/12/17 01:57:24;;;;;;;7.18;2.53;;;;;;;3.00;100.00;100498.25;15282314;19;20079;-59
2023/12/17 02:02:50;;;;;;;5.65;2.45;;;;;;;2.91;100.00;100491.53;15287102;19;20019;-59
2023/12/17 02:08:17;;;;;;;6.65;2.58;;;;;;;2.84;100.00;100489.16;15286873;19;20032;-59
2023/12/17 02:13:41;;;;;;;9.03;2.80;;;;;;;2.84;100.00;100507.81;15012352;19;5001543;-58
2023/12/17 02:19:07;;;;;;;6.32;2.65;;;;;;;2.86;100.00;100496.16;15287629;19;20362;-59
2023/12/17 02:24:35;;;;;;;4.63;2.10;;;;;;;2.82;100.00;100501.66;15284035;19;20014;-56
2023/12/17 02:30:02;;;;;;;9.52;2.75;;;;;;;2.84;100.00;100515.78;15282833;19;20014;-59
2023/12/17 02:35:28;;;;;;;4.95;2.22;;;;;;;2.92;100.00;100503.94;15280329;19;20026;-57
2023/12/17 02:40:55;;;;;;;7.28;2.92;;;;;;;3.00;100.00;100506.25;15286406;19;20019;-56
2023/12/17 02:46:19;;;;;;;4.72;2.00;;;;;;;3.07;100.00;100499.78;15277526;19;20380;-55
2023/12/17 02:51:44;;;;;;;5.57;2.35;;;;;;;3.17;100.00;100510.03;15287029;19;20036;-56
2023/12/17 02:57:11;;;;;;;9.23;2.33;;;;;;;3.19;100.00;100500.19;15283455;19;20069;-56
2023/12/17 03:02:36;;;;;;;5.80;2.25;;;;;;;3.12;100.00;100496.06;15284435;19;20010;-64
2023/12/17 03:08:00;;;;;;;5.32;2.20;;;;;;;3.03;100.00;100499.97;15296271;19;20508;-64
2023/12/17 03:13:28;;;;;;;5.22;2.35;;;;;;;2.97;100.00;100484.22;14785512;19;10000664;-63
2023/12/17 03:18:53;;;;;;;5.45;2.10;;;;;;;2.95;100.00;100481.63;15298366;19;20016;-64
2023/12/17 03:24:17;;;;;;;5.75;2.10;;;;;;;2.94;100.00;100477.22;15290519;19;20498;-64
2023/12/17 03:29:44;;;;;;;6.05;2.28;;;;;;;2.89;100.00;100465.88;15038778;19;5000795;-64
2023/12/17 03:35:09;;;;;;;5.32;2.17;;;;;;;2.91;100.00;100458.69;15283183;19;20026;-64
2023/12/17 03:40:35;;;;;;;6.20;2.10;;;;;;;2.87;100.00;100441.13;15299318;19;20025;-64
2023/12/17 03:46:10;;;;;;;4.70;2.13;;;;;;;2.87;100.00;100435.81;15290719;19;20570;-64
2023/12/17 03:51:35;;;;;;;6.78;2.15;;;;;;;2.84;100.00;100430.59;15297437;19;20085;-64
2023/12/17 03:57:00;;;;;;;5.68;2.30;;;;;;;2.82;100.00;100430.69;15293337;19;20031;-63
2023/12/17 04:02:27;;;;;;;9.23;2.30;;;;;;;2.88;100.00;100426.91;15295884;19;20082;-63
2023/12/17 04:07:54;;;;;;;6.80;2.10;;;;;;;2.96;100.00;100410.56;15287818;19;20042;-64
2023/12/17 04:13:19;;;;;;;7.05;2.70;;;;;;;3.04;100.00;100419.13;15290344;19;20711;-64
2023/12/17 04:18:46;;;;;;;8.02;2.50;;;;;;;3.05;100.00;100418.22;15294176;19;20077;-63
2023/12/17 04:24:10;;;;;;;7.15;2.50;;;;;;;2.98;100.00;100401.63;15292054;19;20022;-64
2023/12/17 04:29:35;;;;;;;6.95;2.20;;;;;;;2.91;100.00;100397.47;15294564;19;20035;-63
2023/12/17 04:35:03;;;;;;;6.18;2.05;;;;;;;2.84;100.00;100393.31;15289167;19;20025;-62
2023/12/17 04:40:29;;;;;;;5.47;2.10;;;;;;;2.77;100.00;100406.88;15287262;19;20538;-64
2023/12/17 04:45:55;;;;;;;6.28;1.98;;;;;;;2.75;100.00;100422.06;15285951;19;20025;-63
2023/12/17 04:51:22;;;;;;;8.57;2.30;;;;;;;2.68;100.00;100417.91;15292559;19;20090;-64
2023/12/17 04:56:46;;;;;;;5.43;1.85;;;;;;;2.62;100.00;100420.81;15288341;19;20014;-64
2023/12/17 05:02:11;;;;;;;5.35;1.98;;;;;;;2.58;100.00;100437.81;15291594;19;20027;-64
2023/12/17 05:07:38;;;;;;;4.95;2.15;;;;;;;2.58;100.00;100446.69;15290008;19;20017;-64
2023/12/17 05:13:03;;;;;;;4.40;2.20;;;;;;;2.58;100.00;100443.16;15285420;19;20015;-63
2023/12/17 05:18:27;;;;;;;4.10;2.20;;;;;;;2.50;100.00;100453.25;15290657;19;20556;-63
2023/12/17 05:23:55;;;;;;;5.68;2.10;;;;;;;2.44;100.00;100460.50;15286802;19;20422;-63
2023/12/17 05:29:20;;;;;;;6.40;2.25;;;;;;;2.37;100.00;100464.34;15290587;19;20014;-63
2023/12/17 05:34:44;;;;;;;6.90;2.30;;;;;;;2.36;100.00;100467.94;15285796;19;20027;-63
2023/12/17 05:40:12;;;;;;;7.55;2.28;;;;;;;2.37;100.00;100477.66;15290357;19;20347;-63
2023/12/17 05:45:44;;;;;;;5.78;2.40;;;;;;;2.37;100.00;100485.63;15278776;19;20018;-62
2023/12/17 05:51:16;;;;;;;6.40;2.38;;;;;;;2.38;100.00;100481.16;15290212;19;20018;-63
2023/12/17 05:56:47;;;;;;;5.22;2.38;;;;;;;2.40;100.00;100479.31;15283918;19;20054;-63
2023/12/17 06:02:12;;;;;;;6.68;2.17;;;;;;;2.40;100.00;100479.31;15285923;19;20010;-62
2023/12/17 06:07:37;;;;;;;5.78;2.03;;;;;;;2.36;100.00;100483.88;15286881;19;20043;-63
2023/12/17 06:13:04;;;;;;;6.00;2.20;;;;;;;2.26;100.00;100488.69;15285655;19;20369;-62
2023/12/17 06:18:29;;;;;;;7.10;2.55;;;;;;;2.14;100.00;100478.50;15280452;19;20363;-63
2023/12/17 06:24:02;;;;;;;5.40;2.80;;;;;;;1.99;100.00;100479.94;15283634;19;20806;-62
2023/12/17 06:29:29;;;;;;;6.80;3.13;;;;;;;1.82;100.00;100478.72;15285130;19;20045;-62
2023/12/17 06:34:54;;;;;;;7.25;3.08;;;;;;;1.71;100.00;100496.84;15283184;19;20018;-62
2023/12/17 06:40:19;;;;;;;9.15;4.00;;;;;;;1.59;100.00;100495.50;15297399;19;20021;-63
2023/12/17 06:45:53;;;;;;;7.78;3.55;;;;;;;1.57;100.00;100510.63;15291033;19;20781;-63
2023/12/17 06:51:18;;;;;;;9.00;3.50;;;;;;;1.54;100.00;100511.59;15295565;19;20021;-63
2023/12/17 06:56:44;;;;;;;7.38;2.95;;;;;;;1.43;100.00;100529.69;15293636;19;20335;-63
2023/12/17 07:02:18;;;;;;;6.00;2.92;;;;;;;1.32;100.00;100537.16;15294856;19;20070;-64
2023/12/17 07:07:36;;;;;;;5.82;2.95;;;;;;;1.26;100.00;100532.03;15293815;19;20366;-72
2023/12/17 07:13:07;;;;;;;7.35;2.70;;;;;;;1.16;100.00;100527.00;15255348;19;20021;-69
2023/12/17 07:18:34;;;;;;;7.05;3.15;;;;;;;1.11;100.00;100539.59;15279490;19;20019;-69
2023/12/17 07:23:59;;;;;;;5.30;3.22;;;;;;;1.19;100.00;100548.16;15281746;19;20014;-67
2023/12/17 07:29:24;;;;;;;9.25;3.50;;;;;;;1.24;100.00;100545.34;15256659;19;20011;-67
2023/12/17 07:34:51;;;;;;;4.72;3.03;;;;;;;1.22;100.00;100533.91;15283615;19;20448;-68
2023/12/17 07:40:16;;;;;;;8.45;3.40;;;;;;;1.25;100.00;100532.94;15281185;19;21409;-69
2023/12/17 07:45:40;;;;;;;7.43;3.28;;;;;;;1.39;100.00;100536.00;15284478;19;20053;-69
2023/12/17 07:51:08;;;;;;;10.27;3.50;;;;;;;1.51;100.00;100554.22;15278875;19;21254;-68
2023/12/17 07:56:33;;;;;;;7.32;2.63;;;;;;;1.61;100.00;100567.19;15273595;19;20018;-67
2023/12/17 08:01:58;;;;;;;6.95;2.80;;;;;;;1.62;100.00;100561.84;15283173;19;20486;-68
2023/12/17 08:07:25;;;;;;;6.53;3.15;;;;;;;1.68;100.00;100572.25;15281169;19;20043;-68
2023/12/17 08:12:56;;;;;;;5.07;2.83;;;;;;;1.77;100.00;100576.38;15281311;19;20017;-68
2023/12/17 08:18:21;;;;;;;6.93;3.20;;;;;;;1.85;100.00;100561.03;15284262;19;20482;-68
2023/12/17 08:23:48;;;;;;;9.90;3.95;;;;;;;2.04;100.00;100563.06;15278880;19;20413;-68
2023/12/17 08:29:13;;;;;;;7.30;3.92;;;;;;;2.19;100.00;100547.47;15278686;19;20409;-69
2023/12/17 08:34:38;;;;;;;6.95;4.38;;;;;;;2.32;100.00;100546.09;15277851;19;20631;-67
2023/12/17 08:40:07;;;;;;;8.63;4.95;;;;;;;2.45;100.00;100554.53;15278575;19;20021;-67
2023/12/17 08:45:32;;;;;;;6.78;4.15;;;;;;;2.53;100.00;100543.59;15282362;19;20017;-68
2023/12/17 08:50:58;;;;;;;5.13;3.10;;;;;;;2.69;100.00;100538.56;15279900;19;20015;-69
2023/12/17 08:56:25;;;;;;;5.72;2.90;;;;;;;2.75;100.00;100538.31;15267910;19;20011;-68
2023/12/17 09:01:50;;;;;;;6.00;2.50;;;;;;;2.81;100.00;100534.53;15278065;19;20022;-68
2023/12/17 09:07:14;;;;;;;4.82;2.50;;;;;;;2.91;100.00;100538.56;15279752;19;20014;-68
2023/12/17 09:12:48;;;;;;;3.45;2.13;;;;;;;3.01;100.00;100523.13;15275047;19;20018;-67
2023/12/17 09:18:13;;;;;;;5.25;2.50;;;;;;;3.12;100.00;100522.69;15277396;19;20025;-71
2023/12/17 09:23:39;;;;;;;3.67;2.38;;;;;;;3.22;100.00;100508.06;15275028;19;20018;-71
2023/12/17 09:29:07;;;;;;;4.25;2.72;;;;;;;3.30;100.00;100518.38;15273366;19;20022;-68
2023/12/17 09:34:33;;;;;;;4.15;2.60;;;;;;;3.37;100.00;100510.09;15276648;19;20011;-71
2023/12/17 09:39:59;;;;;;;4.13;2.40;;;;;;;3.47;100.00;100504.41;15278057;19;20477;-71
2023/12/17 09:45:26;;;;;;;3.78;2.00;;;;;;;3.60;100.00;100502.91;15277928;19;20351;-68
2023/12/17 09:50:51;;;;;;;4.43;2.38;;;;;;;3.75;100.00;100504.09;15275504;19;20014;-68
2023/12/17 09:56:17;;;;;;;4.22;2.88;;;;;;;3.92;100.00;100515.81;15276820;19;20020;-64
2023/12/17 10:01:44;;;;;;;4.38;2.00;;;;;;;4.12;100.00;100504.25;15271906;19;20729;-70
2023/12/17 10:07:09;;;;;;;4.25;2.10;;;;;;;4.31;100.00;100499.81;15275703;19;20039;-70
2023/12/17 10:12:35;;;;;;;2.38;1.90;;;;;;;4.45;100.00;100493.88;15278247;19;20074;-68
2023/12/17 10:18:02;;;;;;;4.68;2.17;;;;;;;4.65;100.00;100499.19;15285958;19;20018;-70
2023/12/17 10:23:27;;;;;;;3.65;2.20;;;;;;;4.84;100.00;100496.50;15295507;19;20044;-70
2023/12/17 10:28:53;;;;;;;4.50;2.08;;;;;;;5.03;100.00;100480.47;15291839;19;20318;-72
2023/12/17 10:34:22;;;;;;;3.13;2.00;;;;;;;5.16;100.00;100472.72;15285623;19;20010;-71
2023/12/17 10:39:51;;;;;;;2.78;1.85;;;;;;;5.28;100.00;100476.59;15290982;19;20398;-70
2023/12/17 10:45:18;;;;;;;2.47;1.80;;;;;;;5.40;100.00;100476.84;15293135;19;20006;-72
2023/12/17 10:50:47;;;;;;;3.00;1.90;;;;;;;5.51;100.00;100468.28;15289077;19;20013;-70
2023/12/17 10:56:17;;;;;;;3.33;2.10;;;;;;;5.60;100.00;100456.25;15288895;19;20018;-70
2023/12/17 11:01:44;;;;;;;4.20;2.10;;;;;;;5.68;100.00;100451.34;15287598;19;20011;-69
2023/12/17 11:07:11;;;;;;;5.15;1.95;;;;;;;5.76;100.00;100436.72;15281509;19;20468;-69
2023/12/17 11:12:59;;;;;;;2.38;1.90;;;;;;;5.84;100.00;100415.78;15282579;19;20007;-69
2023/12/17 11:18:25;;;;;;;2.88;1.80;;;;;;;5.96;100.00;100416.91;15288187;19;20015;-70
2023/12/17 11:23:55;;;;;;;3.90;2.20;;;;;;;6.12;100.00;100408.97;15289098;19;20040;-71
2023/12/17 11:29:38;;;;;;;3.80;1.93;;;;;;;6.31;100.00;100403.47;15290320;19;20013;-71
2023/12/17 11:35:05;;;;;;;5.18;1.90;;;;;;;6.46;100.00;100394.59;15291566;19;20010;-70
2023/12/17 11:40:35;;;;;;;3.17;2.10;;;;;;;6.61;100.00;100383.97;15283254;19;20426;-71
2023/12/17 11:46:01;;;;;;;3.58;2.25;;;;;;;6.67;100.00;100377.38;15288899;19;20032;-69
2023/12/17 11:51:29;;;;;;;3.95;2.10;;;;;;;6.68;100.00;100361.22;15291411;19;20015;-70
2023/12/17 11:56:56;;;;;;;4.72;2.25;;;;;;;6.77;100.00;100367.88;15288563;19;20015;-71
2023/12/17 12:02:22;;;;;;;1.92;1.67;;;;;;;6.85;100.00;100362.06;15289953;19;20026;-71
2023/12/17 12:07:47;;;;;;;4.13;1.70;;;;;;;6.91;100.00;100353.66;15291035;19;20078;-70
2023/12/17 12:13:21;;;;;;;2.95;1.60;;;;;;;6.95;100.00;100339.13;15279869;19;20025;-70
2023/12/17 12:18:47;;;;;;;8.38;1.75;;;;;;;6.97;100.00;100334.56;15285797;19;20021;-71
2023/12/17 12:24:19;;;;;;;4.15;1.70;;;;;;;7.06;100.00;100320.59;15291286;19;20081;-70
2023/12/17 12:29:48;;;;;;;3.55;1.92;;;;;;;7.14;100.00;100311.22;15287439;19;20077;-70
2023/12/17 12:35:32;;;;;;;3.55;1.90;;;;;;;7.21;100.00;100304.56;15293958;19;20017;-70
2023/12/17 12:40:58;;;;;;;3.03;1.70;;;;;;;7.31;100.00;100297.66;15290119;19;20018;-71
2023/12/17 12:46:26;;;;;;;3.10;1.80;;;;;;;7.43;100.00;100287.13;15282121;19;20013;-70
2023/12/17 12:51:51;;;;;;;3.38;1.67;;;;;;;7.51;100.00;100280.34;15290615;19;20020;-70
2023/12/17 12:57:16;;;;;;;2.70;1.70;;;;;;;7.58;100.00;100278.16;15291024;19;20014;-70
2023/12/17 13:02:45;;;;;;;4.07;1.90;;;;;;;7.63;100.00;100262.59;15295354;19;20024;-70
2023/12/17 13:08:10;;;;;;;3.63;1.77;;;;;;;7.68;100.00;100265.00;15294400;19;20070;-70
2023/12/17 13:13:41;;;;;;;3.45;1.95;;;;;;;7.78;100.00;100257.22;15322531;19;20010;-71
2023/12/17 13:19:09;;;;;;;2.63;1.80;;;;;;;7.79;100.00;100240.16;15287344;19;20017;-71
2023/12/17 13:24:35;;;;;;;2.47;1.67;;;;;;;7.73;100.00;100230.69;15285998;19;20293;-71
2023/12/17 13:30:00;;;;;;;4.43;1.80;;;;;;;7.65;100.00;100220.44;15279381;19;20113;-70
2023/12/17 13:35:31;;;;;;;3.33;1.80;;;;;;;7.58;100.00;100210.22;15282198;19;20078;-69
2023/12/17 13:40:56;;;;;;;2.87;2.10;;;;;;;7.45;100.00;100192.22;15283405;19;20074;-70
2023/12/17 13:46:20;;;;;;;2.72;1.90;;;;;;;7.36;100.00;100192.78;15282867;19;20259;-71
2023/12/17 13:51:48;;;;;;;3.42;2.20;;;;;;;7.22;100.00;100185.63;15276377;19;20082;-70
2023/12/17 13:57:17;;;;;;;4.13;1.80;;;;;;;7.18;100.00;100197.50;15273901;19;20026;-72
2023/12/17 14:02:44;;;;;;;3.95;2.10;;;;;;;7.14;100.00;100190.59;15277634;19;20017;-71
2023/12/17 14:08:11;;;;;;;2.97;2.20;;;;;;;7.11;100.00;100191.66;15284305;19;20107;-70
2023/12/17 14:13:42;;;;;;;2.63;1.90;;;;;;;7.03;100.00;100181.41;15277596;19;20074;-70
2023/12/17 14:19:07;;;;;;;3.97;1.97;;;;;;;7.00;100.00;100188.78;15272510;19;20029;-69
2023/12/17 14:24:37;;;;;;;4.15;1.95;;;;;;;6.93;100.00;100182.94;15274267;19;20285;-70
2023/12/17 14:30:02;;;;;;;3.38;2.03;;;;;;;6.85;100.00;100178.03;15275033;19;20472;-72
2023/12/17 14:35:28;;;;;;;2.97;2.20;;;;;;;6.81;100.00;100189.03;15279152;19;20082;-69
2023/12/17 14:40:56;;;;;;;2.78;2.00;;;;;;;6.71;100.00;100186.06;15275936;19;20014;-70
2023/12/17 14:46:20;;;;;;;3.45;2.30;;;;;;;6.61;100.00;100188.44;15279466;19;20486;-70
2023/12/17 14:51:45;;;;;;;3.67;2.35;;;;;;;6.55;100.00;100188.78;15269557;19;20025;-69
2023/12/17 14:57:12;;;;;;;3.67;2.28;;;;;;;6.48;100.00;100197.22;15273583;19;20014;-71
2023/12/17 15:02:37;;;;;;;2.10;1.90;;;;;;;6.41;100.00;100189.63;15288713;19;20009;-70
2023/12/17 15:08:01;;;;;;;3.03;2.22;;;;;;;6.31;100.00;100200.00;15289297;19;20010;-71
2023/12/17 15:13:36;;;;;;;3.58;2.10;;;;;;;6.23;100.00;100199.59;15286686;19;20413;-71
2023/12/17 15:19:02;;;;;;;3.40;2.13;;;;;;;6.17;100.00;100199.00;15286854;19;20014;-71
2023/12/17 15:24:26;;;;;;;2.60;2.08;;;;;;;6.10;100.00;100197.63;15283767;19;20033;-70
2023/12/17 15:29:54;;;;;;;4.30;2.50;;;;;;;5.99;100.00;100195.59;15287541;19;20017;-72
2023/12/17 15:35:20;;;;;;;4.45;4.00;;;;;;;5.89;100.00;100197.00;15278726;19;20010;-71
2023/12/17 15:40:45;;;;;;;5.80;4.05;;;;;;;5.79;100.00;100207.38;15279079;19;20018;-71
2023/12/17 15:46:12;;;;;;;6.15;4.38;;;;;;;5.68;100.00;100212.47;15288313;19;20018;-71
2023/12/17 15:51:38;;;;;;;4.07;2.70;;;;;;;5.51;100.00;100216.94;15282937;19;20023;-71
2023/12/17 15:57:02;;;;;;;3.70;2.90;;;;;;;5.48;100.00;100211.75;15276753;19;20356;-71
2023/12/17 16:02:29;;;;;;;4.65;2.88;;;;;;;5.49;100.00;100216.16;15280933;19;20095;-72
2023/12/17 16:07:59;;;;;;;6.07;3.13;;;;;;;5.44;100.00;100202.19;15283746;19;20015;-71
2023/12/17 16:13:31;;;;;;;5.13;2.95;;;;;;;5.39;100.00;100210.47;15274837;19;20011;-70
2023/12/17 16:19:00;;;;;;;4.07;3.20;;;;;;;5.33;100.00;100207.28;15277608;19;20636;-70
2023/12/17 16:24:25;;;;;;;4.72;3.03;;;;;;;5.28;100.00;100206.66;15282835;19;20082;-70
2023/12/17 16:29:50;;;;;;;3.60;3.10;;;;;;;5.29;100.00;100200.34;15272782;19;20030;-70
2023/12/17 16:35:17;;;;;;;5.68;3.63;;;;;;;5.34;100.00;100206.31;15276622;19;20002;-71
2023/12/17 16:40:43;;;;;;;9.23;5.50;;;;;;;5.41;100.00;100207.72;15277454;19;20015;-71
2023/12/17 16:46:08;;;;;;;6.93;5.10;;;;;;;5.42;100.00;100205.88;15281583;19;20421;-71
2023/12/17 16:51:36;;;;;;;6.82;3.50;;;;;;;5.38;100.00;100205.19;15279187;19;20073;-70
2023/12/17 16:57:00;;;;;;;4.30;2.80;;;;;;;5.38;100.00;100205.19;15279629;19;20482;-71
2023/12/17 17:02:26;;;;;;;5.70;3.40;;;;;;;5.33;100.00;100210.78;15271020;19;20017;-70
2023/12/17 17:07:53;;;;;;;5.15;3.17;;;;;;;5.36;100.00;100207.09;15278048;19;20082;-70
2023/12/17 17:13:24;;;;;;;5.40;2.88;;;;;;;5.44;100.00;100210.22;15274763;19;20025;-72
2023/12/17 17:18:50;;;;;;;5.97;2.72;;;;;;;5.40;100.00;100205.97;15275796;19;20014;-71
2023/12/17 17:24:18;;;;;;;6.43;3.05;;;;;;;5.31;100.00;100203.81;15277503;19;20011;-71
2023/12/17 17:29:43;;;;;;;3.92;2.78;;;;;;;5.24;100.00;100219.31;15276543;19;20032;-71
2023/12/17 17:35:08;;;;;;;4.35;2.90;;;;;;;5.19;100.00;100211.56;15271238;19;20052;-71
2023/12/17 17:40:38;;;;;;;4.53;2.72;;;;;;;5.13;100.00;100219.03;15274419;19;20047;-72
2023/12/17 17:46:02;;;;;;;4.03;2.40;;;;;;;5.14;100.00;100229.63;15275388;19;20014;-73
2023/12/17 17:51:27;;;;;;;4.43;2.83;;;;;;;5.19;100.00;100234.72;15275770;19;20055;-71
2023/12/17 17:56:56;;;;;;;3.97;2.70;;;;;;;5.25;100.00;100226.38;15274482;19;20010;-68
2023/12/17 18:02:21;;;;;;;3.88;2.20;;;;;;;5.24;100.00;100230.84;15273977;19;20022;-67
2023/12/17 18:07:45;;;;;;;5.18;2.60;;;;;;;5.30;100.00;100229.66;15269559;19;20021;-68
2023/12/17 18:13:21;;;;;;;4.95;2.50;;;;;;;5.32;100.00;100234.94;15275444;19;20463;-68
2023/12/17 18:18:47;;;;;;;5.18;2.53;;;;;;;5.36;100.00;100228.47;15277125;19;20017;-68
2023/12/17 18:24:13;;;;;;;4.90;2.58;;;;;;;5.42;100.00;100221.91;15276698;19;20017;-68
2023/12/17 18:29:41;;;;;;;6.20;2.67;;;;;;;5.39;100.00;100220.28;15269394;19;20462;-67
2023/12/17 18:35:06;;;;;;;4.28;2.50;;;;;;;5.33;100.00;100224.16;15286375;19;20423;-67
2023/12/17 18:40:31;;;;;;;5.25;2.72;;;;;;;5.32;100.00;100232.28;15281247;19;20014;-67
2023/12/17 18:45:58;;;;;;;5.35;2.60;;;;;;;5.30;100.00;100226.13;15288236;19;20056;-68
2023/12/17 18:51:23;;;;;;;6.20;2.65;;;;;;;5.25;100.00;100219.22;15287681;19;20070;-67
2023/12/17 18:56:48;;;;;;;4.68;2.72;;;;;;;5.24;100.00;100225.50;15283850;19;20028;-68
2023/12/17 19:02:16;;;;;;;4.38;2.60;;;;;;;5.13;100.00;100216.34;15287103;19;20085;-67
2023/12/17 19:07:40;;;;;;;3.75;2.40;;;;;;;5.10;100.00;100212.06;15285443;19;20451;-65
2023/12/17 19:13:05;;;;;;;6.03;2.47;;;;;;;5.08;100.00;100208.59;15277800;19;20468;-68
2023/12/17 19:18:33;;;;;;;5.20;2.50;;;;;;;5.08;100.00;100219.28;15281668;19;20018;-68
2023/12/17 19:23:58;;;;;;;4.88;2.40;;;;;;;5.12;100.00;100228.84;15283276;19;20025;-68
2023/12/17 19:29:22;;;;;;;3.42;2.50;;;;;;;5.14;100.00;100218.09;15282337;19;20923;-67
2023/12/17 19:34:49;;;;;;;3.85;2.28;;;;;;;5.19;100.00;100219.56;15280241;19;20015;-66
2023/12/17 19:40:16;;;;;;;5.53;2.70;;;;;;;5.19;100.00;100222.25;15281531;19;20040;-67
2023/12/17 19:45:47;;;;;;;4.95;2.50;;;;;;;5.15;100.00;100231.34;15235872;19;20328;-57
2023/12/17 19:51:19;;;;;;;4.03;2.93;;;;;;;5.03;100.00;100221.31;15284614;19;20020;-57
2023/12/17 19:56:43;;;;;;;6.47;3.00;;;;;;;4.92;100.00;100225.44;15284308;19;20522;-56
2023/12/17 20:02:08;;;;;;;5.30;2.90;;;;;;;4.81;100.00;100222.44;15258176;19;20014;-56
2023/12/17 20:07:35;;;;;;;6.03;2.80;;;;;;;4.71;100.00;100226.53;15284102;19;20029;-58
2023/12/17 20:13:00;;;;;;;3.90;2.70;;;;;;;4.65;100.00;100216.16;15282082;19;20137;-58
2023/12/17 20:18:25;;;;;;;4.65;2.88;;;;;;;4.59;100.00;100212.00;15287574;19;20010;-56
2023/12/17 20:23:53;;;;;;;5.40;2.83;;;;;;;4.55;100.00;100213.13;15290079;19;20025;-58
2023/12/17 20:29:17;;;;;;;3.65;2.60;;;;;;;4.50;100.00;100213.38;15294036;19;20481;-57
2023/12/17 20:34:42;;;;;;;5.82;2.95;;;;;;;4.49;100.00;100214.31;15289610;19;20018;-55
2023/12/17 20:40:10;;;;;;;5.45;3.10;;;;;;;4.51;100.00;100215.09;15289871;19;20471;-54
2023/12/17 20:45:35;;;;;;;5.45;2.63;;;;;;;4.52;100.00;100205.25;15286440;19;20347;-57
2023/12/17 20:50:59;;;;;;;5.10;2.90;;;;;;;4.51;100.00;100217.75;15288693;19;20377;-57
2023/12/17 20:56:26;;;;;;;4.20;2.78;;;;;;;4.51;100.00;100220.44;15290883;19;20416;-57
2023/12/17 21:01:53;;;;;;;5.40;2.90;;;;;;;4.46;100.00;100218.00;15288495;19;20392;-57
2023/12/17 21:07:18;;;;;;;4.95;2.65;;;;;;;4.48;100.00;100212.56;15291197;19;20014;-57
2023/12/17 21:12:45;;;;;;;4.32;2.92;;;;;;;4.44;100.00;100213.66;15291088;19;20015;-62
2023/12/17 21:18:10;;;;;;;3.92;3.05;;;;;;;4.44;100.00;100213.66;15289975;19;20021;-56
2023/12/17 21:23:34;;;;;;;5.45;2.92;;;;;;;4.42;100.00;100210.19;15287148;19;20017;-58
2023/12/17 21:29:01;;;;;;;4.95;3.00;;;;;;;4.43;100.00;100207.47;15287818;19;20544;-54
2023/12/17 21:34:27;;;;;;;6.75;3.00;;;;;;;4.48;100.00;100204.56;15284767;19;20787;-57
2023/12/17 21:39:52;;;;;;;6.18;3.30;;;;;;;4.49;100.00;100198.28;15288716;19;20522;-54
2023/12/17 21:45:26;;;;;;;5.32;3.00;;;;;;;4.47;100.00;100186.81;15280812;19;20022;-57
2023/12/17 21:50:51;;;;;;;5.97;3.50;;;;;;;4.46;100.00;100183.31;15285703;19;20014;-57
2023/12/17 21:56:15;;;;;;;5.20;3.20;;;;;;;4.41;100.00;100174.66;15286773;19;20024;-58
2023/12/17 22:01:43;;;;;;;5.07;3.63;;;;;;;4.39;100.00;100173.00;15282063;19;20029;-57
2023/12/17 22:07:08;;;;;;;5.38;3.67;;;;;;;4.33;100.00;100171.53;15283708;19;20011;-58
2023/12/17 22:12:26;;;;;;;4.55;3.50;;;;;;;4.26;100.00;100170.97;15286335;19;20074;-58
2023/12/17 22:17:53;;;;;;;4.80;3.70;;;;;;;4.21;100.00;100175.66;15286970;19;20483;-57
2023/12/17 22:23:21;;;;;;;5.00;3.75;;;;;;;4.19;100.00;100187.34;15281337;19;20485;-57
2023/12/17 22:28:46;;;;;;;7.00;3.88;;;;;;;4.12;100.00;100194.81;15287190;19;20018;-53
2023/12/17 22:34:13;;;;;;;5.25;3.78;;;;;;;4.04;100.00;100176.50;15284707;19;20078;-57
2023/12/17 22:39:38;;;;;;;4.97;3.70;;;;;;;3.97;100.00;100183.09;15285425;19;20014;-57
2023/12/17 22:45:09;;;;;;;5.18;3.63;;;;;;;3.95;100.00;100185.81;15284399;19;20028;-55
2023/12/17 22:50:38;;;;;;;5.70;3.92;;;;;;;3.96;100.00;100181.38;15285690;19;20475;-57
2023/12/17 22:56:05;;;;;;;5.18;4.05;;;;;;;3.95;100.00;100180.47;15277754;19;20031;-57
2023/12/17 23:01:30;;;;;;;7.78;4.60;;;;;;;3.99;100.00;100166.06;15282279;19;20037;-57
2023/12/17 23:06:57;;;;;;;4.60;3.80;;;;;;;4.01;100.00;100158.84;15284463;19;20723;-55
2023/12/17 23:12:22;;;;;;;6.03;3.90;;;;;;;4.03;100.00;100155.25;15285218;19;20044;-56
2023/12/17 23:17:46;;;;;;;7.00;4.25;;;;;;;4.06;100.00;100155.13;15282905;19;20094;-55
2023/12/17 23:23:14;;;;;;;5.60;4.20;;;;;;;4.10;100.00;100146.00;15293821;19;20753;-53
2023/12/17 23:28:40;;;;;;;6.55;4.15;;;;;;;4.11;100.00;100135.28;15292354;19;20078;-54
2023/12/17 23:34:05;;;;;;;4.75;4.05;;;;;;;4.10;100.00;100117.53;15297018;19;20097;-57
2023/12/17 23:39:32;;;;;;;5.18;3.90;;;;;;;4.10;100.00;100113.97;15295552;19;20038;-56
2023/12/17 23:45:03;;;;;;;4.50;4.10;;;;;;;4.07;100.00;100115.00;15294360;19;20025;-57
2023/12/17 23:50:28;;;;;;;6.35;4.30;;;;;;;4.06;100.00;100107.94;15296915;19;20011;-57
2023/12/17 23:55:56;;;;;;;4.57;3.80;;;;;;;4.06;100.00;100099.09;15292192;19;20535;-55
